Time;durP1;ratioP1;P1;durP2;ratioP2;P2;SDS_P1;SDS_P2;PMS_P1;PMS_P2;Temp;Humidity;BMP_temperature;BMP_pressure;BME280_temperature;BME280_humidity;BME280_pressure;Samples;Min_cycle;Max_cycle;Signal;HPM_P1;HPM_P2
2023/05/18 00:01:39;;;;;;;3.77;1.90;;;;;;;13.47;100.00;94312.13;5079433;28;20543;-84
2023/05/18 00:04:07;;;;;;;3.27;1.90;;;;;;;13.57;100.00;94317.59;5088366;28;20213;-84
2023/05/18 00:06:32;;;;;;;2.20;1.83;;;;;;;13.48;100.00;94293.38;5088358;28;20174;-84
2023/05/18 00:08:59;;;;;;;2.03;1.63;;;;;;;13.74;100.00;94323.66;5089874;28;20155;-84
2023/05/18 00:11:24;;;;;;;2.10;1.60;;;;;;;13.56;100.00;94330.00;5088872;28;20792;-84
2023/05/18 00:13:50;;;;;;;4.00;1.70;;;;;;;13.35;100.00;94324.63;5088997;28;20420;-84
2023/05/18 00:16:15;;;;;;;5.57;1.90;;;;;;;12.88;100.00;94301.13;5088507;28;20413;-84
2023/05/18 00:18:41;;;;;;;2.37;1.77;;;;;;;13.04;100.00;94329.41;5088565;28;20448;-84
2023/05/18 00:21:07;;;;;;;3.40;2.10;;;;;;;13.05;100.00;94312.50;5088869;28;20433;-84
2023/05/18 00:23:33;;;;;;;3.40;2.17;;;;;;;13.30;100.00;94332.50;5087573;28;20425;-84
2023/05/18 00:26:00;;;;;;;2.55;1.85;;;;;;;12.97;100.00;94307.63;5088283;28;20412;-84
2023/05/18 00:28:25;;;;;;;3.77;1.77;;;;;;;13.14;100.00;94326.97;5089493;28;20174;-85
2023/05/18 00:30:52;;;;;;;2.77;1.50;;;;;;;13.23;100.00;94330.78;5087898;28;20223;-85
2023/05/18 00:33:18;;;;;;;3.90;1.57;;;;;;;12.98;100.00;94266.13;5089036;28;20181;-84
2023/05/18 00:35:43;;;;;;;2.07;1.40;;;;;;;13.32;100.00;94312.69;5087775;28;20162;-84
2023/05/18 00:38:10;;;;;;;1.40;1.23;;;;;;;13.34;100.00;94305.31;5089218;28;20166;-85
2023/05/18 00:40:36;;;;;;;1.83;1.30;;;;;;;13.52;100.00;94334.16;5083534;28;20194;-85
2023/05/18 00:43:02;;;;;;;1.83;1.20;;;;;;;13.58;100.00;94335.81;5077223;28;20190;-85
2023/05/18 00:45:27;;;;;;;1.57;1.17;;;;;;;13.56;100.00;94334.47;5080276;28;20174;-85
2023/05/18 00:47:53;;;;;;;3.60;1.20;;;;;;;13.20;100.00;94304.06;5078140;28;20441;-84
2023/05/18 00:50:18;;;;;;;2.88;1.05;;;;;;;12.75;100.00;94261.78;5088627;28;20403;-85
2023/05/18 00:52:45;;;;;;;2.10;1.10;;;;;;;12.77;100.00;94268.44;5087581;28;20783;-84
2023/05/18 00:55:11;;;;;;;1.60;1.13;;;;;;;12.99;100.00;94288.88;5087695;28;20421;-85
2023/05/18 00:57:38;;;;;;;1.57;0.90;;;;;;;12.97;100.00;94281.19;5088944;28;20511;-84
2023/05/18 01:00:09;;;;;;;1.13;1.00;;;;;;;13.29;100.00;94304.44;5088431;28;20229;-84
2023/05/18 01:02:35;;;;;;;2.07;0.90;;;;;;;13.29;100.00;94283.31;5087299;28;20189;-84
2023/05/18 01:05:02;;;;;;;2.40;1.00;;;;;;;13.34;100.00;94278.06;5081177;28;20703;-84
2023/05/18 01:07:32;;;;;;;8.80;1.30;;;;;;;13.41;100.00;94294.56;5075984;28;20244;-84
2023/05/18 01:09:58;;;;;;;1.53;1.10;;;;;;;13.55;100.00;94314.38;5078510;28;20170;-84
2023/05/18 01:12:39;;;;;;;4.10;1.27;;;;;;;13.51;100.00;94300.81;5061853;28;20167;-85
2023/05/18 01:15:11;;;;;;;3.03;1.20;;;;;;;13.48;100.00;94303.97;5034493;28;20198;-85
2023/05/18 01:17:55;;;;;;;1.97;1.30;;;;;;;13.61;100.00;94321.31;5035154;28;20195;-84
2023/05/18 01:20:40;;;;;;;1.40;1.30;;;;;;;13.62;100.00;94317.63;5035018;28;20219;-84
2023/05/18 01:23:28;;;;;;;2.27;1.20;;;;;;;13.59;100.00;94299.59;5034813;28;20178;-84
2023/05/18 01:25:53;;;;;;;2.67;1.10;;;;;;;13.62;100.00;94316.84;5034660;28;20190;-85
2023/05/18 01:28:25;;;;;;;6.07;1.67;;;;;;;13.55;100.00;94311.72;5033314;28;20725;-84
2023/05/18 01:30:52;;;;;;;1.70;1.30;;;;;;;13.50;100.00;94303.69;5034602;28;20156;-85
2023/05/18 01:33:17;;;;;;;1.60;1.10;;;;;;;13.32;100.00;94286.25;5034601;28;20174;-85
2023/05/18 01:35:49;;;;;;;1.50;1.40;;;;;;;13.56;100.00;94318.63;5034421;28;20922;-85
2023/05/18 01:38:20;;;;;;;1.10;1.00;;;;;;;13.60;100.00;94327.66;5034537;28;20160;-86
2023/05/18 01:41:03;;;;;;;2.53;1.20;;;;;;;13.57;100.00;94326.31;5033137;28;20191;-85
2023/05/18 01:43:36;;;;;;;2.13;1.97;;;;;;;13.47;100.00;94314.78;5033113;28;20168;-85
2023/05/18 01:46:16;;;;;;;1.70;1.33;;;;;;;13.48;100.00;94316.38;5034115;28;20741;-86
2023/05/18 01:48:50;;;;;;;2.40;1.43;;;;;;;13.54;100.00;94326.78;5033023;28;20713;-81
2023/05/18 01:51:19;;;;;;;1.30;1.20;;;;;;;13.45;100.00;94303.63;5034252;28;20156;-82
2023/05/18 01:53:54;;;;;;;1.63;1.53;;;;;;;13.53;100.00;94321.75;5034163;28;20171;-82
2023/05/18 01:56:20;;;;;;;1.73;1.47;;;;;;;13.49;100.00;94316.13;5034264;28;20171;-82
2023/05/18 01:58:47;;;;;;;1.33;1.20;;;;;;;13.29;100.00;94280.66;5032783;28;20222;-81
2023/05/18 02:01:14;;;;;;;4.90;1.53;;;;;;;13.48;100.00;94314.53;5033813;28;20311;-81
2023/05/18 02:03:42;;;;;;;1.50;1.20;;;;;;;13.49;100.00;94318.00;5065948;28;20729;-81
2023/05/18 02:06:07;;;;;;;2.90;2.27;;;;;;;13.52;100.00;94314.84;5033912;28;20592;-81
2023/05/18 02:08:33;;;;;;;7.47;3.87;;;;;;;13.38;100.00;94295.06;5053403;28;20262;-81
2023/05/18 02:10:58;;;;;;;5.77;4.37;;;;;;;13.56;100.00;94319.41;5062183;28;20194;-81
2023/05/18 02:13:24;;;;;;;4.60;3.73;;;;;;;13.37;100.00;94296.91;5069728;28;20464;-81
2023/05/18 02:15:49;;;;;;;7.97;4.40;;;;;;;13.56;100.00;94335.28;5058212;28;20170;-81
2023/05/18 02:18:15;;;;;;;6.30;3.63;;;;;;;13.54;100.00;94333.91;5065077;28;20174;-82
2023/05/18 02:20:41;;;;;;;6.13;2.87;;;;;;;13.56;100.00;94329.19;5064887;28;20283;-82
2023/05/18 02:23:07;;;;;;;3.90;2.53;;;;;;;13.39;100.00;94313.34;5072573;28;20182;-82
2023/05/18 02:25:32;;;;;;;2.60;2.40;;;;;;;13.40;100.00;94311.50;5073498;28;20641;-82
2023/05/18 02:27:58;;;;;;;5.07;2.80;;;;;;;13.51;100.00;94332.56;5073402;28;20257;-82
2023/05/18 02:30:23;;;;;;;5.80;2.00;;;;;;;13.40;100.00;94314.94;5073363;28;20515;-81
2023/05/18 02:32:48;;;;;;;1.43;1.30;;;;;;;13.48;100.00;94335.69;5073233;28;20174;-81
2023/05/18 02:35:15;;;;;;;1.83;1.60;;;;;;;13.39;100.00;94310.69;5073798;28;20174;-81
2023/05/18 02:37:42;;;;;;;2.10;1.40;;;;;;;13.47;100.00;94331.44;5073712;28;20170;-81
2023/05/18 02:40:13;;;;;;;2.23;1.70;;;;;;;13.41;100.00;94323.66;5073328;28;20198;-82
2023/05/18 02:42:38;;;;;;;2.67;1.53;;;;;;;13.50;100.00;94335.44;5065952;28;20565;-82
2023/05/18 02:45:04;;;;;;;2.23;1.70;;;;;;;13.44;100.00;94325.81;5057858;28;20174;-82
2023/05/18 02:47:30;;;;;;;3.60;1.67;;;;;;;13.50;100.00;94333.59;5060613;28;20192;-82
2023/05/18 02:49:55;;;;;;;2.90;2.23;;;;;;;13.44;100.00;94321.34;5054218;28;20174;-86
2023/05/18 02:52:21;;;;;;;3.93;1.80;;;;;;;12.76;100.00;94218.50;5060821;28;20179;-87
2023/05/18 02:54:46;;;;;;;2.60;2.40;;;;;;;13.43;100.00;94316.28;5058006;28;20214;-87
2023/05/18 02:57:12;;;;;;;2.90;1.70;;;;;;;13.47;100.00;94328.00;5065021;28;20547;-87
2023/05/18 02:59:38;;;;;;;1.77;1.53;;;;;;;13.53;100.00;94350.81;5059556;28;20222;-86
2023/05/18 03:02:04;;;;;;;1.83;1.73;;;;;;;13.36;100.00;94332.31;5052825;28;20278;-87
2023/05/18 03:04:30;;;;;;;2.83;1.47;;;;;;;13.50;100.00;94365.31;5052075;28;20557;-86
2023/05/18 03:06:57;;;;;;;1.73;1.60;;;;;;;13.47;100.00;94362.38;5052750;28;20175;-86
2023/05/18 03:09:22;;;;;;;2.33;1.50;;;;;;;13.29;100.00;94344.09;5051514;28;20171;-86
2023/05/18 03:11:48;;;;;;;3.60;1.60;;;;;;;13.00;100.00;94304.47;5051401;28;20561;-86
2023/05/18 03:14:13;;;;;;;2.90;2.27;;;;;;;13.15;100.00;94327.75;5051109;28;20175;-86
2023/05/18 03:16:39;;;;;;;2.53;2.00;;;;;;;13.10;100.00;94335.56;5054435;28;20182;-86
2023/05/18 03:19:04;;;;;;;2.37;1.70;;;;;;;13.04;100.00;94355.81;5061850;28;20174;-85
2023/05/18 03:21:34;;;;;;;2.90;2.50;;;;;;;12.96;100.00;94372.06;5059614;28;20433;-86
2023/05/18 03:24:01;;;;;;;2.17;1.97;;;;;;;13.20;100.00;94394.72;5062058;28;20179;-83
2023/05/18 03:26:29;;;;;;;4.22;2.45;;;;;;;13.06;100.00;94368.81;5051547;28;20403;-83
2023/05/18 03:28:55;;;;;;;1.93;1.73;;;;;;;13.33;100.00;94403.38;5052594;28;20182;-83
2023/05/18 03:31:20;;;;;;;1.93;1.70;;;;;;;13.38;100.00;94395.53;5052643;28;20155;-82
2023/05/18 03:33:46;;;;;;;3.73;1.80;;;;;;;13.21;100.00;94367.25;5050990;28;20915;-82
2023/05/18 03:36:11;;;;;;;3.90;1.80;;;;;;;13.13;100.00;94350.94;5059315;28;20197;-82
2023/05/18 03:38:37;;;;;;;1.73;1.63;;;;;;;13.19;100.00;94371.16;5066080;28;20248;-82
2023/05/18 03:41:02;;;;;;;3.13;2.00;;;;;;;13.46;100.00;94408.38;5063408;28;20194;-82
2023/05/18 03:43:28;;;;;;;2.87;2.37;;;;;;;13.23;100.00;94367.78;5072141;28;20178;-82
2023/05/18 03:45:53;;;;;;;2.60;2.40;;;;;;;13.48;100.00;94401.81;5072413;28;20311;-83
2023/05/18 03:48:20;;;;;;;2.90;2.40;;;;;;;13.50;100.00;94404.97;5072752;28;20165;-82
2023/05/18 03:50:45;;;;;;;3.17;2.23;;;;;;;13.37;100.00;94388.66;5072044;28;20167;-82
2023/05/18 03:53:12;;;;;;;5.37;2.57;;;;;;;13.51;100.00;94411.06;5072121;28;20161;-82
2023/05/18 03:55:37;;;;;;;3.07;2.77;;;;;;;13.51;100.00;94411.88;5072242;28;20549;-82
2023/05/18 03:58:02;;;;;;;3.73;3.10;;;;;;;13.41;100.00;94403.78;5072165;28;20176;-82
2023/05/18 04:00:29;;;;;;;5.60;4.17;;;;;;;13.46;100.00;94416.28;5071720;28;20318;-82
2023/05/18 04:02:55;;;;;;;4.93;3.80;;;;;;;13.45;100.00;94412.03;5070706;28;20170;-83
2023/05/18 04:05:20;;;;;;;8.83;5.67;;;;;;;13.28;100.00;94390.88;5072222;28;20182;-82
2023/05/18 04:07:46;;;;;;;18.30;12.30;;;;;;;13.34;100.00;94395.19;5071855;28;20250;-82
2023/05/18 04:10:12;;;;;;;17.00;11.60;;;;;;;13.56;100.00;94430.50;5072097;28;20158;-82
2023/05/18 04:12:39;;;;;;;4.35;3.28;;;;;;;13.50;100.00;94430.63;5071684;28;21395;-82
2023/05/18 04:15:05;;;;;;;11.38;6.88;;;;;;;13.35;100.00;94411.88;5071504;28;20409;-83
2023/05/18 04:17:30;;;;;;;4.33;3.70;;;;;;;13.36;100.00;94416.13;5071890;28;20249;-82
2023/05/18 04:19:56;;;;;;;4.40;3.40;;;;;;;13.52;100.00;94434.66;5071770;28;20578;-82
2023/05/18 04:22:21;;;;;;;6.97;3.93;;;;;;;13.16;100.00;94376.91;5071870;28;20638;-82
2023/05/18 04:24:47;;;;;;;6.40;4.90;;;;;;;13.59;100.00;94432.63;5071750;28;20178;-82
2023/05/18 04:27:14;;;;;;;8.93;3.77;;;;;;;13.61;100.00;94432.41;5072018;28;20171;-81
2023/05/18 04:29:42;;;;;;;5.40;4.30;;;;;;;13.67;100.00;94439.38;5060769;28;20538;-80
2023/05/18 04:32:09;;;;;;;4.60;3.60;;;;;;;13.71;100.00;94432.56;5060277;28;20175;-80
2023/05/18 04:34:36;;;;;;;4.40;3.53;;;;;;;13.76;100.00;94437.94;5069072;28;20171;-80
2023/05/18 04:37:04;;;;;;;3.00;2.80;;;;;;;13.49;100.00;94386.75;5059891;28;20673;-80
2023/05/18 04:39:33;;;;;;;5.73;3.27;;;;;;;13.64;100.00;94408.13;5059361;28;20187;-80
2023/05/18 04:41:59;;;;;;;5.57;3.33;;;;;;;13.86;100.00;94434.66;5062929;28;20162;-80
2023/05/18 04:44:27;;;;;;;6.23;3.77;;;;;;;13.79;100.00;94429.53;5058759;28;20791;-80
2023/05/18 04:46:54;;;;;;;4.43;3.30;;;;;;;13.74;100.00;94424.16;5063409;28;20179;-81
2023/05/18 04:49:24;;;;;;;4.13;2.73;;;;;;;13.90;100.00;94441.88;5061530;28;20175;-80
2023/05/18 04:51:54;;;;;;;3.20;2.50;;;;;;;13.96;100.00;94450.69;5057028;28;20179;-80
2023/05/18 04:54:23;;;;;;;3.73;3.00;;;;;;;13.94;100.00;94455.41;5066702;28;20316;-80
2023/05/18 04:56:49;;;;;;;4.30;2.80;;;;;;;13.78;100.00;94427.91;5066220;28;20202;-80
2023/05/18 04:59:15;;;;;;;4.50;3.00;;;;;;;13.91;100.00;94447.97;5063534;28;20175;-80
2023/05/18 05:01:40;;;;;;;5.90;3.67;;;;;;;13.82;100.00;94450.22;5063039;28;20230;-81
2023/05/18 05:04:06;;;;;;;3.33;3.00;;;;;;;13.77;100.00;94449.31;5059837;28;21034;-80
2023/05/18 05:06:31;;;;;;;3.13;2.83;;;;;;;13.59;100.00;94424.72;5075261;28;20166;-81
2023/05/18 05:08:57;;;;;;;4.27;3.40;;;;;;;13.72;100.00;94451.91;5073649;28;20296;-80
2023/05/18 05:11:22;;;;;;;4.67;4.17;;;;;;;13.74;100.00;94457.75;5073595;28;20193;-80
2023/05/18 05:13:48;;;;;;;3.30;2.80;;;;;;;13.76;100.00;94474.97;5075299;28;20171;-80
2023/05/18 05:16:13;;;;;;;4.73;3.70;;;;;;;13.70;100.00;94460.06;5074798;28;20627;-80
2023/05/18 05:18:38;;;;;;;6.03;4.23;;;;;;;13.80;100.00;94473.47;5075457;28;20173;-80
2023/05/18 05:21:05;;;;;;;6.00;4.40;;;;;;;13.88;100.00;94483.66;5063445;28;20199;-80
2023/05/18 05:23:31;;;;;;;10.27;7.30;;;;;;;13.90;100.00;94486.06;5054666;28;20167;-80
2023/05/18 05:25:56;;;;;;;10.27;8.33;;;;;;;13.82;100.00;94470.59;5054390;28;20214;-80
2023/05/18 05:28:23;;;;;;;11.77;9.37;;;;;;;13.88;100.00;94486.28;5054533;28;20171;-80
2023/05/18 05:30:48;;;;;;;10.63;8.97;;;;;;;13.81;100.00;94475.06;5055097;28;20242;-81
2023/05/18 05:33:14;;;;;;;11.70;9.20;;;;;;;13.91;100.00;94492.97;5064099;28;20221;-81
2023/05/18 05:35:39;;;;;;;13.23;9.63;;;;;;;13.97;100.00;94494.63;5066011;28;20637;-81
2023/05/18 05:38:06;;;;;;;14.43;10.30;;;;;;;13.69;100.00;94455.81;5064640;28;20193;-80
2023/05/18 05:40:31;;;;;;;10.33;8.37;;;;;;;13.82;100.00;94489.91;5062571;28;20688;-80
2023/05/18 05:42:57;;;;;;;11.40;7.10;;;;;;;13.89;100.00;94503.78;5061827;28;20162;-80
2023/05/18 05:45:22;;;;;;;9.07;5.27;;;;;;;13.88;100.00;94504.00;5056221;28;20201;-80
2023/05/18 05:47:49;;;;;;;9.80;6.20;;;;;;;13.88;100.00;94506.66;5054747;28;20520;-80
2023/05/18 05:50:14;;;;;;;13.40;7.40;;;;;;;13.77;100.00;94494.28;5053147;28;20170;-80
2023/05/18 05:52:39;;;;;;;6.73;5.17;;;;;;;13.78;100.00;94490.63;5065130;28;20183;-80
2023/05/18 05:55:05;;;;;;;9.97;6.27;;;;;;;13.89;100.00;94508.28;5065557;28;20355;-80
2023/05/18 05:57:31;;;;;;;9.23;5.00;;;;;;;13.87;100.00;94508.50;5064629;28;20198;-80
2023/05/18 05:59:56;;;;;;;8.60;4.13;;;;;;;13.84;100.00;94503.69;5062064;28;20226;-80
2023/05/18 06:02:21;;;;;;;4.57;3.57;;;;;;;13.86;100.00;94509.53;5062451;28;20232;-80
2023/05/18 06:04:47;;;;;;;4.37;3.27;;;;;;;13.87;100.00;94500.56;5064472;28;20595;-81
2023/05/18 06:07:12;;;;;;;3.67;3.23;;;;;;;13.76;100.00;94487.41;5066729;28;20171;-81
2023/05/18 06:09:37;;;;;;;4.03;3.30;;;;;;;13.92;100.00;94513.88;5053911;28;20247;-81
2023/05/18 06:12:03;;;;;;;3.60;3.00;;;;;;;13.93;100.00;94518.13;5053790;28;20631;-81
2023/05/18 06:14:29;;;;;;;5.37;3.20;;;;;;;13.85;100.00;94500.00;5054048;28;20242;-81
2023/05/18 06:16:54;;;;;;;7.70;3.50;;;;;;;13.92;100.00;94518.38;5053776;28;20715;-80
2023/05/18 06:19:20;;;;;;;5.40;3.40;;;;;;;13.59;100.00;94474.97;5053818;28;20182;-82
2023/05/18 06:21:45;;;;;;;8.30;4.00;;;;;;;13.90;100.00;94521.25;5067812;28;20592;-81
2023/05/18 06:24:10;;;;;;;5.53;3.50;;;;;;;13.87;100.00;94521.72;5065424;28;20543;-81
2023/05/18 06:26:36;;;;;;;7.07;4.00;;;;;;;13.86;100.00;94506.91;5073483;28;20561;-81
2023/05/18 06:29:01;;;;;;;7.90;3.60;;;;;;;13.76;100.00;94498.78;5063690;28;20269;-82
2023/05/18 06:31:27;;;;;;;7.00;3.73;;;;;;;13.91;100.00;94530.81;5065033;28;20558;-81
2023/05/18 06:33:52;;;;;;;8.20;3.90;;;;;;;13.95;100.00;94534.56;5064826;28;20655;-81
2023/05/18 06:36:18;;;;;;;7.67;3.50;;;;;;;14.03;100.00;94535.22;5064880;28;20171;-81
2023/05/18 06:38:43;;;;;;;13.57;9.37;;;;;;;13.81;100.00;94516.59;5066821;28;20193;-81
2023/05/18 06:41:09;;;;;;;10.50;7.57;;;;;;;13.79;100.00;94518.69;5061508;28;20194;-81
2023/05/18 06:43:34;;;;;;;11.70;7.73;;;;;;;13.83;100.00;94536.50;5061488;28;20175;-81
2023/05/18 06:45:59;;;;;;;12.13;9.07;;;;;;;13.81;100.00;94533.28;5061308;28;20240;-81
2023/05/18 06:48:27;;;;;;;14.40;10.23;;;;;;;13.97;100.00;94548.38;5063781;28;20230;-81
2023/05/18 06:50:53;;;;;;;13.47;9.37;;;;;;;13.87;100.00;94507.69;5064523;28;20174;-81
2023/05/18 06:53:18;;;;;;;12.50;8.37;;;;;;;14.21;100.00;94551.66;5056565;28;20237;-81
2023/05/18 06:55:44;;;;;;;8.97;7.33;;;;;;;14.28;100.00;94551.50;5068555;28;21010;-82
2023/05/18 06:58:09;;;;;;;19.63;15.00;;;;;;;14.26;100.00;94535.06;5068840;28;20644;-84
2023/05/18 07:00:36;;;;;;;28.17;22.30;;;;;;;14.50;100.00;94554.28;5064182;28;20763;-84
2023/05/18 07:03:02;;;;;;;24.83;18.27;;;;;;;14.37;100.00;94526.22;5073096;28;20526;-84
2023/05/18 07:05:27;;;;;;;19.57;14.07;;;;;;;14.52;100.00;94534.44;5071494;28;20185;-82
2023/05/18 07:07:53;;;;;;;21.93;14.57;;;;;;;14.62;100.00;94549.66;5072696;28;20170;-82
2023/05/18 07:10:18;;;;;;;17.60;12.93;;;;;;;14.78;99.78;94580.66;5072207;28;20174;-82
2023/05/18 07:12:43;;;;;;;10.13;7.17;;;;;;;14.51;99.02;94548.72;5064168;28;20270;-81
2023/05/18 07:15:10;;;;;;;8.20;6.43;;;;;;;14.56;98.71;94567.34;5067002;28;20233;-83
2023/05/18 07:17:37;;;;;;;10.20;7.40;;;;;;;14.47;98.70;94554.75;5061404;28;20175;-86
2023/05/18 07:20:04;;;;;;;10.67;6.03;;;;;;;14.19;98.49;94513.22;5058775;28;20210;-85
2023/05/18 07:22:30;;;;;;;6.93;5.70;;;;;;;14.61;98.61;94587.81;5052748;28;20163;-81
2023/05/18 07:24:57;;;;;;;8.47;5.80;;;;;;;14.53;99.27;94573.13;5052423;28;20163;-84
2023/05/18 07:27:22;;;;;;;8.77;6.00;;;;;;;14.53;98.96;94580.28;5052436;28;20152;-82
2023/05/18 07:29:49;;;;;;;10.07;6.40;;;;;;;14.45;98.99;94570.06;5052408;28;20252;-83
2023/05/18 07:32:15;;;;;;;6.90;5.30;;;;;;;14.25;98.69;94557.31;5050964;28;20174;-82
2023/05/18 07:34:42;;;;;;;7.70;5.50;;;;;;;14.22;94.27;94552.47;5050909;28;20412;-82
2023/05/18 07:37:08;;;;;;;7.90;5.07;;;;;;;14.20;91.41;94568.59;5052266;28;20233;-80
2023/05/18 07:39:33;;;;;;;20.73;5.23;;;;;;;14.40;89.80;94604.44;5052341;28;20419;-81
2023/05/18 07:42:00;;;;;;;8.20;6.23;;;;;;;14.19;88.57;94606.69;5053207;28;20266;-82
2023/05/18 07:44:26;;;;;;;15.13;6.50;;;;;;;14.14;88.63;94611.91;5062611;28;20412;-86
2023/05/18 07:46:51;;;;;;;6.63;5.53;;;;;;;14.12;90.86;94614.00;5063668;28;20166;-84
2023/05/18 07:49:17;;;;;;;7.57;5.17;;;;;;;14.12;91.28;94614.00;5063492;28;20262;-81
2023/05/18 07:51:42;;;;;;;13.23;5.93;;;;;;;13.96;87.99;94604.19;5063674;28;20173;-84
2023/05/18 07:54:08;;;;;;;7.77;5.30;;;;;;;13.97;88.08;94605.78;5055196;28;20175;-87
2023/05/18 07:56:33;;;;;;;9.13;5.33;;;;;;;14.09;88.81;94625.06;5066915;28;20688;-81
2023/05/18 07:58:59;;;;;;;14.13;6.67;;;;;;;14.11;88.93;94628.25;5060409;28;20262;-82
2023/05/18 08:01:27;;;;;;;8.90;6.57;;;;;;;13.94;90.07;94606.25;5070550;28;20317;-83
2023/05/18 08:03:53;;;;;;;11.57;5.77;;;;;;;14.05;89.50;94617.84;5062231;28;20675;-82
2023/05/18 08:06:20;;;;;;;9.97;6.27;;;;;;;14.05;89.01;94625.78;5067069;28;20647;-82
2023/05/18 08:08:45;;;;;;;8.17;4.97;;;;;;;14.17;87.46;94640.56;5070959;28;20243;-82
2023/05/18 08:11:11;;;;;;;11.97;7.90;;;;;;;14.06;87.42;94632.69;5071848;28;20242;-82
2023/05/18 08:13:38;;;;;;;12.23;6.57;;;;;;;14.17;90.57;94645.06;5071381;28;20181;-81
2023/05/18 08:16:03;;;;;;;9.90;6.37;;;;;;;14.11;90.22;94632.75;5057143;28;20189;-84
2023/05/18 08:18:28;;;;;;;14.77;6.60;;;;;;;14.06;89.48;94624.72;5067686;28;20186;-82
2023/05/18 08:20:54;;;;;;;8.47;6.23;;;;;;;14.05;87.90;94631.06;5059829;28;20262;-83
2023/05/18 08:23:20;;;;;;;10.03;5.27;;;;;;;14.10;86.83;94644.38;5056398;28;20179;-82
2023/05/18 08:25:45;;;;;;;10.02;7.20;;;;;;;14.20;88.64;94665.75;5055547;28;20406;-82
2023/05/18 08:28:11;;;;;;;11.90;6.17;;;;;;;14.18;89.35;94663.31;5060543;28;21307;-82
2023/05/18 08:30:36;;;;;;;10.17;5.67;;;;;;;14.07;86.52;94652.81;5055110;28;20175;-82
2023/05/18 08:33:01;;;;;;;14.30;8.27;;;;;;;14.09;87.17;94677.22;5063120;28;20419;-82
2023/05/18 08:35:27;;;;;;;7.90;5.93;;;;;;;14.03;88.94;94662.25;5068169;28;20190;-83
2023/05/18 08:37:53;;;;;;;8.27;5.40;;;;;;;14.03;86.05;94665.72;5061443;28;20260;-84
2023/05/18 08:40:19;;;;;;;11.65;6.75;;;;;;;14.10;86.50;94682.25;5059714;28;20867;-82
2023/05/18 08:43:02;;;;;;;11.88;5.95;;;;;;;14.01;84.70;94688.19;5057577;28;20411;-83
2023/05/18 08:45:45;;;;;;;9.82;5.53;;;;;;;13.81;83.48;94680.63;5058895;28;20870;-82
2023/05/18 08:48:12;;;;;;;9.40;5.40;;;;;;;13.85;85.35;94698.44;5055203;28;21744;-82
2023/05/18 08:50:40;;;;;;;7.03;4.83;;;;;;;13.79;83.70;94694.09;5057716;28;20175;-82
2023/05/18 08:53:06;;;;;;;6.67;4.60;;;;;;;13.57;83.58;94678.06;5062458;28;20672;-81
2023/05/18 08:55:35;;;;;;;8.40;4.40;;;;;;;13.56;83.79;94675.66;5055961;28;20202;-82
2023/05/18 08:58:03;;;;;;;7.73;4.50;;;;;;;13.73;82.91;94705.63;5066004;28;20195;-81
2023/05/18 09:00:29;;;;;;;10.63;5.10;;;;;;;13.84;84.36;94703.97;5058735;28;20721;-82
2023/05/18 09:02:55;;;;;;;12.90;4.37;;;;;;;13.88;82.89;94711.22;5057330;28;20180;-82
2023/05/18 09:05:22;;;;;;;9.63;4.97;;;;;;;13.71;82.46;94685.72;5062496;28;20646;-82
2023/05/18 09:07:50;;;;;;;9.97;4.77;;;;;;;13.78;83.71;94711.00;5058334;28;20224;-83
2023/05/18 09:10:16;;;;;;;13.27;5.30;;;;;;;13.75;84.13;94714.09;5057042;28;20179;-83
2023/05/18 09:12:43;;;;;;;8.63;4.60;;;;;;;13.75;83.05;94727.34;5059402;28;20290;-83
2023/05/18 09:15:10;;;;;;;12.02;5.80;;;;;;;13.68;83.69;94737.25;5050047;28;20918;-83
2023/05/18 09:17:35;;;;;;;9.90;5.57;;;;;;;13.77;83.39;94730.56;5060262;28;20649;-82
2023/05/18 09:20:04;;;;;;;9.20;5.57;;;;;;;13.71;86.01;94707.69;5062868;28;20195;-86
2023/05/18 09:22:30;;;;;;;13.10;6.87;;;;;;;13.86;87.02;94737.09;5069448;28;20166;-84
2023/05/18 09:24:56;;;;;;;12.83;5.90;;;;;;;13.89;87.61;94727.91;5057363;28;20183;-82
2023/05/18 09:27:21;;;;;;;14.33;7.23;;;;;;;13.97;87.92;94732.81;5062948;28;20248;-82
2023/05/18 09:29:55;;;;;;;12.30;6.87;;;;;;;14.01;89.42;94717.28;5063780;28;20197;-87
2023/05/18 09:32:23;;;;;;;31.90;18.10;;;;;;;14.18;89.75;94728.75;5060360;28;20198;-84
2023/05/18 09:34:49;;;;;;;13.20;7.73;;;;;;;13.92;90.26;94677.16;5071292;28;20181;-84
2023/05/18 09:37:19;;;;;;;10.43;6.93;;;;;;;14.29;89.99;94719.94;5066746;28;20179;-83
2023/05/18 09:39:57;;;;;;;9.43;6.80;;;;;;;14.38;90.51;94728.28;5065908;28;20163;-81
2023/05/18 09:42:47;;;;;;;12.00;7.83;;;;;;;14.46;91.55;94738.53;5065726;28;20174;-82
2023/05/18 09:45:17;;;;;;;11.53;7.97;;;;;;;14.52;92.04;94741.06;5060726;28;20646;-83
2023/05/18 09:47:43;;;;;;;11.83;7.00;;;;;;;14.27;92.95;94687.59;5065736;28;20170;-84
2023/05/18 09:50:09;;;;;;;13.73;6.60;;;;;;;14.53;88.36;94739.22;5063885;28;20261;-83
2023/05/18 09:52:44;;;;;;;12.63;6.57;;;;;;;14.43;87.98;94739.84;5062381;28;20179;-83
2023/05/18 09:55:11;;;;;;;10.00;7.17;;;;;;;14.27;89.28;94741.34;5054033;28;20163;-83
2023/05/18 09:57:45;;;;;;;8.63;5.83;;;;;;;14.13;87.48;94744.50;5062073;28;20255;-83
2023/05/18 10:00:12;;;;;;;13.10;6.80;;;;;;;14.08;87.80;94736.47;5062190;28;20226;-83
2023/05/18 10:02:44;;;;;;;13.17;6.23;;;;;;;14.20;90.50;94742.53;5062289;28;20229;-82
2023/05/18 10:05:26;;;;;;;13.60;6.57;;;;;;;14.00;90.93;94705.91;5062326;28;20179;-82
2023/05/18 10:07:53;;;;;;;10.30;6.40;;;;;;;14.34;89.90;94749.16;5062169;28;20255;-82
2023/05/18 10:10:25;;;;;;;8.30;5.90;;;;;;;14.36;87.34;94761.13;5060898;28;20653;-82
2023/05/18 10:12:51;;;;;;;11.53;6.10;;;;;;;14.22;87.00;94740.44;5049675;28;20175;-84
2023/05/18 10:15:20;;;;;;;14.43;6.67;;;;;;;14.41;89.44;94754.34;5060286;28;20310;-83
2023/05/18 10:17:47;;;;;;;18.87;7.23;;;;;;;14.34;89.42;94763.22;5062778;28;20261;-83
2023/05/18 10:20:18;;;;;;;13.97;5.93;;;;;;;14.09;87.86;94727.50;5069337;28;20344;-83
2023/05/18 10:22:48;;;;;;;17.33;7.40;;;;;;;13.94;86.73;94723.50;5061664;28;20265;-82
2023/05/18 10:25:19;;;;;;;17.23;8.40;;;;;;;14.25;87.39;94763.81;5060494;28;20191;-82
2023/05/18 10:27:47;;;;;;;8.60;6.00;;;;;;;14.28;85.33;94771.28;5062192;28;20233;-83
2023/05/18 10:30:13;;;;;;;8.63;5.70;;;;;;;14.25;85.07;94772.56;5063610;28;20193;-83
2023/05/18 10:32:41;;;;;;;9.27;6.37;;;;;;;14.28;86.47;94772.06;5063267;28;20660;-82
2023/05/18 10:35:08;;;;;;;15.03;6.80;;;;;;;14.12;86.69;94737.59;5065654;28;20178;-81
2023/05/18 10:37:37;;;;;;;8.90;5.97;;;;;;;14.29;86.02;94776.34;5059691;28;20175;-81
2023/05/18 10:40:06;;;;;;;12.73;7.43;;;;;;;14.22;86.51;94765.09;5062744;28;20191;-83
2023/05/18 10:42:32;;;;;;;11.73;6.27;;;;;;;14.00;86.28;94726.25;5064306;28;20190;-82
2023/05/18 10:45:00;;;;;;;10.77;6.43;;;;;;;14.35;87.60;94770.13;5055305;28;20598;-83
2023/05/18 10:47:27;;;;;;;9.57;6.47;;;;;;;14.50;86.96;94777.56;5064603;28;20178;-83
2023/05/18 10:49:53;;;;;;;8.90;6.07;;;;;;;14.54;85.06;94786.63;5058022;28;20220;-82
2023/05/18 10:52:20;;;;;;;11.93;7.60;;;;;;;14.48;84.62;94787.59;5059767;28;20210;-81
2023/05/18 10:54:46;;;;;;;11.17;5.80;;;;;;;14.49;84.45;94794.50;5061122;28;20614;-81
2023/05/18 10:57:18;;;;;;;8.07;5.57;;;;;;;14.51;83.29;94795.06;5062866;28;20240;-82
2023/05/18 10:59:46;;;;;;;9.20;5.93;;;;;;;14.11;82.70;94749.22;5062977;28;20209;-84
2023/05/18 11:02:17;;;;;;;14.70;7.33;;;;;;;14.28;84.16;94787.16;5063028;28;20222;-84
2023/05/18 11:04:44;;;;;;;13.73;6.57;;;;;;;14.22;85.29;94782.81;5059712;28;20181;-83
2023/05/18 11:07:11;;;;;;;11.47;6.00;;;;;;;14.15;83.19;94787.44;5060745;28;20193;-83
2023/05/18 11:09:40;;;;;;;7.43;4.83;;;;;;;14.28;84.85;94803.06;5063194;28;20179;-81
2023/05/18 11:12:11;;;;;;;8.20;5.03;;;;;;;14.31;83.97;94802.59;5059630;28;20186;-83
2023/05/18 11:14:47;;;;;;;12.93;5.10;;;;;;;14.10;83.94;94782.03;5062115;28;20173;-82
2023/05/18 11:17:20;;;;;;;9.47;5.70;;;;;;;14.07;84.02;94770.09;5063948;28;20973;-83
2023/05/18 11:20:04;;;;;;;9.23;5.40;;;;;;;14.34;84.79;94805.59;5052525;28;20657;-82
2023/05/18 11:22:43;;;;;;;6.83;5.10;;;;;;;14.46;86.17;94807.41;5062246;28;20186;-82
2023/05/18 11:25:09;;;;;;;7.00;5.70;;;;;;;14.36;85.70;94784.13;5058532;28;20201;-82
2023/05/18 11:27:34;;;;;;;7.60;5.57;;;;;;;14.41;85.03;94791.44;5062986;28;20630;-81